sensor_id;sensor_type;location;lat;lon;timestamp;noise_LAeq;noise_LA_min;noise_LA_max;noise_LA01;noise_LA95
66450;Laerm;56829;52.274;4.770;2022-09-09T00:00:01;46.74;35.13;56.11;;
66450;Laerm;56829;52.274;4.770;2022-09-09T00:00:12;35.66;32.76;37.85;;
66450;Laerm;56829;52.274;4.770;2022-09-09T00:00:23;36.15;33.27;48.21;;
66450;Laerm;56829;52.274;4.770;2022-09-09T00:00:34;35.72;33.54;39.00;;
66450;Laerm;56829;52.274;4.770;2022-09-09T00:00:49;36.77;34.20;41.45;;
66450;Laerm;56829;52.274;4.770;2022-09-09T00:01:46;41.59;34.12;52.13;;
66450;Laerm;56829;52.274;4.770;2022-09-09T00:02:04;36.71;33.71;41.43;;
66450;Laerm;56829;52.274;4.770;2022-09-09T00:02:19;66.30;34.95;82.86;;
66450;Laerm;56829;52.274;4.770;2022-09-09T00:02:30;44.51;39.64;51.14;;
66450;Laerm;56829;52.274;4.770;2022-09-09T00:02:40;52.70;42.08;58.18;;
66450;Laerm;56829;52.274;4.770;2022-09-09T00:02:57;45.18;37.27;53.30;;
66450;Laerm;56829;52.274;4.770;2022-09-09T00:03:12;37.86;34.15;48.62;;
66450;Laerm;56829;52.274;4.770;2022-09-09T00:03:27;44.84;35.29;55.64;;
66450;Laerm;56829;52.274;4.770;2022-09-09T00:03:53;50.99;38.45;59.44;;
66450;Laerm;56829;52.274;4.770;2022-09-09T00:04:12;37.92;35.42;46.82;;
66450;Laerm;56829;52.274;4.770;2022-09-09T00:04:26;37.43;34.75;42.71;;
66450;Laerm;56829;52.274;4.770;2022-09-09T00:04:37;38.18;34.92;43.12;;
66450;Laerm;56829;52.274;4.770;2022-09-09T00:05:17;36.06;34.12;39.02;;
66450;Laerm;56829;52.274;4.770;2022-09-09T00:05:36;35.30;32.83;43.91;;
66450;Laerm;56829;52.274;4.770;2022-09-09T00:06:21;34.69;32.37;36.94;;
66450;Laerm;56829;52.274;4.770;2022-09-09T00:06:42;34.94;32.10;46.54;;
66450;Laerm;56829;52.274;4.770;2022-09-09T00:06:56;34.60;32.38;40.65;;
66450;Laerm;56829;52.274;4.770;2022-09-09T00:07:24;34.78;32.78;42.74;;
66450;Laerm;56829;52.274;4.770;2022-09-09T00:07:41;35.12;32.63;43.71;;
66450;Laerm;56829;52.274;4.770;2022-09-09T00:07:54;35.37;33.06;41.96;;
66450;Laerm;56829;52.274;4.770;2022-09-09T00:08:06;37.21;32.82;52.37;;
66450;Laerm;56829;52.274;4.770;2022-09-09T00:08:25;34.83;32.62;42.69;;
66450;Laerm;56829;52.274;4.770;2022-09-09T00:09:12;48.04;34.27;62.17;;
66450;Laerm;56829;52.274;4.770;2022-09-09T00:09:25;57.02;41.82;67.67;;
66450;Laerm;56829;52.274;4.770;2022-09-09T00:09:45;39.33;35.75;43.72;;
66450;Laerm;56829;52.274;4.770;2022-09-09T00:10:13;50.07;35.43;63.58;;
66450;Laerm;56829;52.274;4.770;2022-09-09T00:10:59;36.00;32.41;42.99;;
66450;Laerm;56829;52.274;4.770;2022-09-09T00:11:03;34.79;32.23;47.41;;
66450;Laerm;56829;52.274;4.770;2022-09-09T00:11:15;35.84;32.44;42.59;;
66450;Laerm;56829;52.274;4.770;2022-09-09T00:11:32;34.15;31.79;35.95;;
66450;Laerm;56829;52.274;4.770;2022-09-09T00:11:54;34.81;32.22;37.71;;
66450;Laerm;56829;52.274;4.770;2022-09-09T00:12:11;34.31;32.36;36.43;;
66450;Laerm;56829;52.274;4.770;2022-09-09T00:12:25;34.29;31.75;36.41;;
66450;Laerm;56829;52.274;4.770;2022-09-09T00:13:13;35.35;32.60;39.63;;
66450;Laerm;56829;52.274;4.770;2022-09-09T00:13:31;46.21;34.02;58.48;;
66450;Laerm;56829;52.274;4.770;2022-09-09T00:13:47;41.52;34.38;51.88;;
66450;Laerm;56829;52.274;4.770;2022-09-09T00:13:59;38.53;35.02;44.60;;
66450;Laerm;56829;52.274;4.770;2022-09-09T00:14:14;53.63;39.11;63.08;;
66450;Laerm;56829;52.274;4.770;2022-09-09T00:14:59;36.47;33.90;41.44;;
66450;Laerm;56829;52.274;4.770;2022-09-09T00:15:12;37.60;34.95;42.56;;
66450;Laerm;56829;52.274;4.770;2022-09-09T00:15:27;36.75;34.88;38.19;;
66450;Laerm;56829;52.274;4.770;2022-09-09T00:15:47;48.94;35.47;58.93;;
66450;Laerm;56829;52.274;4.770;2022-09-09T00:16:16;35.69;34.09;37.71;;
66450;Laerm;56829;52.274;4.770;2022-09-09T00:16:29;35.20;33.35;38.64;;
66450;Laerm;56829;52.274;4.770;2022-09-09T00:16:42;35.48;33.65;42.02;;
66450;Laerm;56829;52.274;4.770;2022-09-09T00:16:58;35.79;32.77;44.29;;
66450;Laerm;56829;52.274;4.770;2022-09-09T00:17:23;40.44;33.39;51.55;;
66450;Laerm;56829;52.274;4.770;2022-09-09T00:17:37;36.23;32.63;44.49;;
66450;Laerm;56829;52.274;4.770;2022-09-09T00:17:52;35.03;33.00;37.79;;
66450;Laerm;56829;52.274;4.770;2022-09-09T00:18:26;34.95;32.14;38.33;;
66450;Laerm;56829;52.274;4.770;2022-09-09T00:18:45;35.50;32.53;46.75;;
66450;Laerm;56829;52.274;4.770;2022-09-09T00:19:02;34.99;32.60;37.96;;
66450;Laerm;56829;52.274;4.770;2022-09-09T00:19:18;36.33;32.90;41.68;;
66450;Laerm;56829;52.274;4.770;2022-09-09T00:19:48;34.69;33.19;36.45;;
66450;Laerm;56829;52.274;4.770;2022-09-09T00:20:29;35.34;32.44;38.24;;
66450;Laerm;56829;52.274;4.770;2022-09-09T00:20:44;34.57;32.38;38.72;;
66450;Laerm;56829;52.274;4.770;2022-09-09T00:21:11;35.56;33.48;38.77;;
66450;Laerm;56829;52.274;4.770;2022-09-09T00:21:47;35.95;33.79;38.31;;
66450;Laerm;56829;52.274;4.770;2022-09-09T00:22:15;36.37;34.29;39.73;;
66450;Laerm;56829;52.274;4.770;2022-09-09T00:22:27;39.69;34.91;46.99;;
66450;Laerm;56829;52.274;4.770;2022-09-09T00:22:39;40.15;34.64;54.44;;
66450;Laerm;56829;52.274;4.770;2022-09-09T00:22:57;41.56;34.62;49.56;;
66450;Laerm;56829;52.274;4.770;2022-09-09T00:23:11;44.55;33.38;54.92;;
66450;Laerm;56829;52.274;4.770;2022-09-09T00:23:42;47.46;39.03;53.93;;
66450;Laerm;56829;52.274;4.770;2022-09-09T00:23:54;42.25;33.69;52.95;;
66450;Laerm;56829;52.274;4.770;2022-09-09T00:24:26;35.76;33.95;40.36;;
66450;Laerm;56829;52.274;4.770;2022-09-09T00:24:38;38.33;33.90;54.16;;
66450;Laerm;56829;52.274;4.770;2022-09-09T00:24:55;40.20;34.60;49.73;;
66450;Laerm;56829;52.274;4.770;2022-09-09T00:25:11;46.87;35.99;54.07;;
66450;Laerm;56829;52.274;4.770;2022-09-09T00:25:30;36.13;33.94;40.87;;
66450;Laerm;56829;52.274;4.770;2022-09-09T00:25:54;44.58;34.21;53.97;;
66450;Laerm;56829;52.274;4.770;2022-09-09T00:26:51;38.48;35.39;43.41;;
66450;Laerm;56829;52.274;4.770;2022-09-09T00:27:11;47.36;34.75;56.56;;
66450;Laerm;56829;52.274;4.770;2022-09-09T00:27:26;34.66;32.13;48.33;;
66450;Laerm;56829;52.274;4.770;2022-09-09T00:27:40;35.06;32.19;47.66;;
66450;Laerm;56829;52.274;4.770;2022-09-09T00:27:51;35.59;33.25;39.08;;
66450;Laerm;56829;52.274;4.770;2022-09-09T00:28:02;35.95;32.34;40.03;;
66450;Laerm;56829;52.274;4.770;2022-09-09T00:28:13;35.79;32.11;41.48;;
66450;Laerm;56829;52.274;4.770;2022-09-09T00:28:27;35.59;33.06;39.40;;
66450;Laerm;56829;52.274;4.770;2022-09-09T00:29:35;35.74;33.16;40.49;;
66450;Laerm;56829;52.274;4.770;2022-09-09T00:30:20;36.00;33.29;45.07;;
66450;Laerm;56829;52.274;4.770;2022-09-09T00:30:33;39.24;34.79;45.34;;
66450;Laerm;56829;52.274;4.770;2022-09-09T00:30:44;39.55;34.96;44.24;;
66450;Laerm;56829;52.274;4.770;2022-09-09T00:30:59;37.81;33.52;44.10;;
66450;Laerm;56829;52.274;4.770;2022-09-09T00:31:19;36.58;34.15;43.12;;
66450;Laerm;56829;52.274;4.770;2022-09-09T00:31:31;36.70;33.46;41.41;;
66450;Laerm;56829;52.274;4.770;2022-09-09T00:31:41;36.57;33.94;40.13;;
66450;Laerm;56829;52.274;4.770;2022-09-09T00:31:54;36.26;33.34;41.02;;
66450;Laerm;56829;52.274;4.770;2022-09-09T00:32:14;35.76;33.46;41.48;;
66450;Laerm;56829;52.274;4.770;2022-09-09T00:32:25;35.50;33.26;37.49;;
66450;Laerm;56829;52.274;4.770;2022-09-09T00:32:37;35.90;32.68;42.82;;
66450;Laerm;56829;52.274;4.770;2022-09-09T00:32:53;34.91;32.50;42.10;;
66450;Laerm;56829;52.274;4.770;2022-09-09T00:33:11;34.61;32.19;42.43;;
66450;Laerm;56829;52.274;4.770;2022-09-09T00:33:24;35.67;32.65;48.09;;
66450;Laerm;56829;52.274;4.770;2022-09-09T00:33:36;36.23;33.65;39.57;;
66450;Laerm;56829;52.274;4.770;2022-09-09T00:33:48;35.67;33.57;37.84;;
66450;Laerm;56829;52.274;4.770;2022-09-09T00:34:21;35.12;32.77;37.15;;
66450;Laerm;56829;52.274;4.770;2022-09-09T00:34:29;35.82;33.25;39.43;;
66450;Laerm;56829;52.274;4.770;2022-09-09T00:34:52;36.00;33.28;39.44;;
66450;Laerm;56829;52.274;4.770;2022-09-09T00:35:10;49.15;35.38;60.29;;
66450;Laerm;56829;52.274;4.770;2022-09-09T00:35:36;38.20;33.26;49.18;;
66450;Laerm;56829;52.274;4.770;2022-09-09T00:35:49;35.41;32.61;39.11;;
66450;Laerm;56829;52.274;4.770;2022-09-09T00:35:59;35.93;33.39;38.44;;
66450;Laerm;56829;52.274;4.770;2022-09-09T00:36:14;35.75;32.75;39.11;;
66450;Laerm;56829;52.274;4.770;2022-09-09T00:36:26;38.77;35.39;42.75;;
66450;Laerm;56829;52.274;4.770;2022-09-09T00:36:39;35.86;33.28;40.41;;
66450;Laerm;56829;52.274;4.770;2022-09-09T00:36:50;35.98;33.81;38.79;;
66450;Laerm;56829;52.274;4.770;2022-09-09T00:37:02;35.19;32.80;37.32;;
66450;Laerm;56829;52.274;4.770;2022-09-09T00:37:12;34.77;32.45;37.09;;
66450;Laerm;56829;52.274;4.770;2022-09-09T00:37:24;34.05;31.98;35.79;;
66450;Laerm;56829;52.274;4.770;2022-09-09T00:37:35;33.71;31.62;35.93;;
66450;Laerm;56829;52.274;4.770;2022-09-09T00:37:47;33.16;31.38;35.21;;
66450;Laerm;56829;52.274;4.770;2022-09-09T00:38:04;33.59;31.62;35.60;;
66450;Laerm;56829;52.274;4.770;2022-09-09T00:38:40;34.30;32.35;36.01;;
66450;Laerm;56829;52.274;4.770;2022-09-09T00:38:56;35.06;33.03;37.12;;
66450;Laerm;56829;52.274;4.770;2022-09-09T00:39:09;35.22;32.88;39.00;;
66450;Laerm;56829;52.274;4.770;2022-09-09T00:39:42;43.21;34.52;51.62;;
66450;Laerm;56829;52.274;4.770;2022-09-09T00:39:55;49.00;34.03;60.53;;
66450;Laerm;56829;52.274;4.770;2022-09-09T00:40:18;34.84;32.85;37.08;;
66450;Laerm;56829;52.274;4.770;2022-09-09T00:40:33;34.08;32.00;36.10;;
66450;Laerm;56829;52.274;4.770;2022-09-09T00:40:52;35.20;32.98;40.73;;
66450;Laerm;56829;52.274;4.770;2022-09-09T00:41:22;34.21;32.26;36.21;;
66450;Laerm;56829;52.274;4.770;2022-09-09T00:41:55;34.97;32.52;37.02;;
66450;Laerm;56829;52.274;4.770;2022-09-09T00:42:16;34.73;32.17;37.34;;
66450;Laerm;56829;52.274;4.770;2022-09-09T00:42:38;34.05;31.86;36.45;;
66450;Laerm;56829;52.274;4.770;2022-09-09T00:42:52;34.83;31.67;38.18;;
66450;Laerm;56829;52.274;4.770;2022-09-09T00:43:29;47.90;34.22;60.70;;
66450;Laerm;56829;52.274;4.770;2022-09-09T00:43:40;36.81;33.86;41.85;;
66450;Laerm;56829;52.274;4.770;2022-09-09T00:43:59;37.57;35.06;40.68;;
66450;Laerm;56829;52.274;4.770;2022-09-09T00:44:25;36.30;33.66;42.47;;
66450;Laerm;56829;52.274;4.770;2022-09-09T00:44:38;35.25;32.16;39.84;;
66450;Laerm;56829;52.274;4.770;2022-09-09T00:44:53;41.66;33.62;48.44;;
66450;Laerm;56829;52.274;4.770;2022-09-09T00:45:31;34.30;32.27;36.50;;
66450;Laerm;56829;52.274;4.770;2022-09-09T00:47:53;36.33;33.16;41.40;;
66450;Laerm;56829;52.274;4.770;2022-09-09T00:48:05;36.68;33.67;41.61;;
66450;Laerm;56829;52.274;4.770;2022-09-09T00:48:20;36.98;33.71;46.10;;
66450;Laerm;56829;52.274;4.770;2022-09-09T00:48:47;35.50;32.40;38.89;;
66450;Laerm;56829;52.274;4.770;2022-09-09T00:49:04;38.08;32.11;48.08;;
66450;Laerm;56829;52.274;4.770;2022-09-09T00:49:57;34.35;31.86;36.61;;
66450;Laerm;56829;52.274;4.770;2022-09-09T00:50:15;35.04;32.26;37.79;;
66450;Laerm;56829;52.274;4.770;2022-09-09T00:50:42;34.14;32.22;36.38;;
66450;Laerm;56829;52.274;4.770;2022-09-09T00:50:57;34.09;31.86;37.51;;
66450;Laerm;56829;52.274;4.770;2022-09-09T00:51:44;33.42;31.52;35.27;;
66450;Laerm;56829;52.274;4.770;2022-09-09T00:52:20;33.79;31.90;35.58;;
66450;Laerm;56829;52.274;4.770;2022-09-09T00:52:52;34.17;32.09;36.70;;
66450;Laerm;56829;52.274;4.770;2022-09-09T00:53:19;41.67;32.94;54.30;;
66450;Laerm;56829;52.274;4.770;2022-09-09T00:53:56;45.40;32.61;57.95;;
66450;Laerm;56829;52.274;4.770;2022-09-09T00:54:44;33.95;32.06;36.50;;
66450;Laerm;56829;52.274;4.770;2022-09-09T00:55:45;35.57;32.99;39.54;;
66450;Laerm;56829;52.274;4.770;2022-09-09T00:56:22;35.61;33.68;37.35;;
66450;Laerm;56829;52.274;4.770;2022-09-09T00:56:37;35.46;33.67;37.71;;
66450;Laerm;56829;52.274;4.770;2022-09-09T00:57:10;34.82;33.08;36.42;;
66450;Laerm;56829;52.274;4.770;2022-09-09T00:57:26;34.15;32.27;36.63;;
66450;Laerm;56829;52.274;4.770;2022-09-09T00:57:38;34.07;31.96;35.73;;
66450;Laerm;56829;52.274;4.770;2022-09-09T00:57:49;33.86;32.11;36.04;;
66450;Laerm;56829;52.274;4.770;2022-09-09T00:58:01;33.71;31.78;35.28;;
66450;Laerm;56829;52.274;4.770;2022-09-09T00:58:12;33.68;31.93;35.18;;
66450;Laerm;56829;52.274;4.770;2022-09-09T00:58:22;33.89;31.70;38.03;;
66450;Laerm;56829;52.274;4.770;2022-09-09T00:58:32;34.94;32.70;38.15;;
66450;Laerm;56829;52.274;4.770;2022-09-09T00:58:43;34.33;32.49;35.97;;
66450;Laerm;56829;52.274;4.770;2022-09-09T00:59:03;33.87;32.21;37.76;;
66450;Laerm;56829;52.274;4.770;2022-09-09T00:59:49;33.59;31.81;35.12;;
66450;Laerm;56829;52.274;4.770;2022-09-09T01:00:16;33.64;31.63;35.63;;
66450;Laerm;56829;52.274;4.770;2022-09-09T01:00:30;33.34;31.37;37.38;;
66450;Laerm;56829;52.274;4.770;2022-09-09T01:00:43;34.07;32.52;36.16;;
66450;Laerm;56829;52.274;4.770;2022-09-09T01:01:10;34.04;31.91;35.88;;
66450;Laerm;56829;52.274;4.770;2022-09-09T01:01:21;34.12;31.28;41.21;;
66450;Laerm;56829;52.274;4.770;2022-09-09T01:01:31;35.09;33.20;39.70;;
66450;Laerm;56829;52.274;4.770;2022-09-09T01:01:42;38.09;33.81;45.23;;
66450;Laerm;56829;52.274;4.770;2022-09-09T01:01:52;37.75;33.51;44.25;;
66450;Laerm;56829;52.274;4.770;2022-09-09T01:02:09;38.35;33.89;45.21;;
66450;Laerm;56829;52.274;4.770;2022-09-09T01:02:43;33.98;31.32;36.61;;
66450;Laerm;56829;52.274;4.770;2022-09-09T01:03:49;33.24;31.47;36.41;;
66450;Laerm;56829;52.274;4.770;2022-09-09T01:04:03;33.63;31.37;36.06;;
66450;Laerm;56829;52.274;4.770;2022-09-09T01:04:18;33.36;31.58;40.32;;
66450;Laerm;56829;52.274;4.770;2022-09-09T01:04:33;34.35;31.59;41.15;;
66450;Laerm;56829;52.274;4.770;2022-09-09T01:04:44;34.91;31.59;44.73;;
66450;Laerm;56829;52.274;4.770;2022-09-09T01:04:56;36.31;32.78;40.40;;
66450;Laerm;56829;52.274;4.770;2022-09-09T01:05:12;35.96;32.60;40.92;;
66450;Laerm;56829;52.274;4.770;2022-09-09T01:05:27;34.82;31.72;42.03;;
66450;Laerm;56829;52.274;4.770;2022-09-09T01:05:44;35.87;33.19;39.16;;
66450;Laerm;56829;52.274;4.770;2022-09-09T01:06:32;33.86;31.72;42.91;;
66450;Laerm;56829;52.274;4.770;2022-09-09T01:06:43;34.11;32.17;36.01;;
66450;Laerm;56829;52.274;4.770;2022-09-09T01:07:01;34.33;32.10;36.54;;
66450;Laerm;56829;52.274;4.770;2022-09-09T01:07:16;34.92;32.61;37.71;;
66450;Laerm;56829;52.274;4.770;2022-09-09T01:07:27;34.60;31.99;38.02;;
66450;Laerm;56829;52.274;4.770;2022-09-09T01:07:37;34.78;32.95;36.37;;
66450;Laerm;56829;52.274;4.770;2022-09-09T01:07:48;34.24;32.31;36.55;;
66450;Laerm;56829;52.274;4.770;2022-09-09T01:08:00;34.24;32.29;35.98;;
66450;Laerm;56829;52.274;4.770;2022-09-09T01:08:22;34.49;32.44;36.96;;
66450;Laerm;56829;52.274;4.770;2022-09-09T01:08:57;34.30;32.10;36.55;;
66450;Laerm;56829;52.274;4.770;2022-09-09T01:09:29;33.58;31.52;36.17;;
66450;Laerm;56829;52.274;4.770;2022-09-09T01:10:00;34.06;32.05;36.96;;
66450;Laerm;56829;52.274;4.770;2022-09-09T01:10:15;33.95;32.08;37.70;;
66450;Laerm;56829;52.274;4.770;2022-09-09T01:10:36;34.60;31.55;38.61;;
66450;Laerm;56829;52.274;4.770;2022-09-09T01:10:52;34.59;32.31;37.81;;
66450;Laerm;56829;52.274;4.770;2022-09-09T01:11:03;34.38;32.37;37.43;;
66450;Laerm;56829;52.274;4.770;2022-09-09T01:11:21;34.81;32.82;36.82;;
66450;Laerm;56829;52.274;4.770;2022-09-09T01:11:35;34.42;32.47;37.31;;
66450;Laerm;56829;52.274;4.770;2022-09-09T01:12:17;34.33;32.20;37.06;;
66450;Laerm;56829;52.274;4.770;2022-09-09T01:12:35;34.00;32.39;35.94;;
66450;Laerm;56829;52.274;4.770;2022-09-09T01:12:48;32.89;30.90;34.89;;
66450;Laerm;56829;52.274;4.770;2022-09-09T01:12:59;32.98;31.52;34.73;;
66450;Laerm;56829;52.274;4.770;2022-09-09T01:13:17;33.34;31.47;35.33;;
66450;Laerm;56829;52.274;4.770;2022-09-09T01:13:30;33.25;31.36;43.78;;
66450;Laerm;56829;52.274;4.770;2022-09-09T01:13:40;34.19;32.23;36.32;;
66450;Laerm;56829;52.274;4.770;2022-09-09T01:14:10;33.55;31.84;36.71;;
66450;Laerm;56829;52.274;4.770;2022-09-09T01:14:47;34.69;32.36;39.43;;
66450;Laerm;56829;52.274;4.770;2022-09-09T01:15:08;34.06;32.03;36.11;;
66450;Laerm;56829;52.274;4.770;2022-09-09T01:15:21;34.87;32.31;39.86;;
66450;Laerm;56829;52.274;4.770;2022-09-09T01:15:32;44.42;36.27;52.39;;
66450;Laerm;56829;52.274;4.770;2022-09-09T01:15:44;40.64;36.18;47.56;;
66450;Laerm;56829;52.274;4.770;2022-09-09T01:15:57;51.00;40.61;58.06;;
66450;Laerm;56829;52.274;4.770;2022-09-09T01:16:10;54.99;48.25;62.05;;
66450;Laerm;56829;52.274;4.770;2022-09-09T01:16:21;56.52;49.68;63.54;;
66450;Laerm;56829;52.274;4.770;2022-09-09T01:16:31;57.99;49.38;65.02;;
66450;Laerm;56829;52.274;4.770;2022-09-09T01:16:42;49.15;43.28;54.36;;
66450;Laerm;56829;52.274;4.770;2022-09-09T01:16:54;44.39;37.60;53.53;;
66450;Laerm;56829;52.274;4.770;2022-09-09T01:17:11;39.85;34.56;45.77;;
66450;Laerm;56829;52.274;4.770;2022-09-09T01:17:26;36.65;33.52;40.32;;
66450;Laerm;56829;52.274;4.770;2022-09-09T01:17:52;33.89;31.87;36.68;;
66450;Laerm;56829;52.274;4.770;2022-09-09T01:18:04;33.77;31.19;37.81;;
66450;Laerm;56829;52.274;4.770;2022-09-09T01:18:17;33.82;31.07;36.91;;
66450;Laerm;56829;52.274;4.770;2022-09-09T01:18:33;33.55;31.77;35.61;;
66450;Laerm;56829;52.274;4.770;2022-09-09T01:18:46;34.40;32.13;36.71;;
66450;Laerm;56829;52.274;4.770;2022-09-09T01:18:59;34.03;32.31;35.66;;
66450;Laerm;56829;52.274;4.770;2022-09-09T01:19:10;36.82;33.12;41.46;;
66450;Laerm;56829;52.274;4.770;2022-09-09T01:19:45;51.49;38.67;62.51;;
66450;Laerm;56829;52.274;4.770;2022-09-09T01:20:24;34.10;32.26;36.55;;
66450;Laerm;56829;52.274;4.770;2022-09-09T01:21:09;35.24;32.88;41.80;;
66450;Laerm;56829;52.274;4.770;2022-09-09T01:21:33;34.26;32.20;36.60;;
66450;Laerm;56829;52.274;4.770;2022-09-09T01:22:21;34.11;31.89;37.44;;
66450;Laerm;56829;52.274;4.770;2022-09-09T01:22:52;34.37;31.88;40.27;;
66450;Laerm;56829;52.274;4.770;2022-09-09T01:24:24;34.40;32.26;37.49;;
66450;Laerm;56829;52.274;4.770;2022-09-09T01:25:09;33.87;32.24;36.11;;
66450;Laerm;56829;52.274;4.770;2022-09-09T01:25:27;33.69;31.82;35.55;;
66450;Laerm;56829;52.274;4.770;2022-09-09T01:26:46;33.89;32.35;35.34;;
66450;Laerm;56829;52.274;4.770;2022-09-09T01:26:59;33.65;31.72;35.79;;
66450;Laerm;56829;52.274;4.770;2022-09-09T01:27:10;33.69;32.06;35.40;;
66450;Laerm;56829;52.274;4.770;2022-09-09T01:27:23;34.99;32.86;36.56;;
66450;Laerm;56829;52.274;4.770;2022-09-09T01:27:35;34.74;33.27;36.46;;
66450;Laerm;56829;52.274;4.770;2022-09-09T01:27:49;34.23;32.33;36.46;;
66450;Laerm;56829;52.274;4.770;2022-09-09T01:28:01;33.87;31.61;35.43;;
66450;Laerm;56829;52.274;4.770;2022-09-09T01:28:14;36.04;32.60;40.86;;
66450;Laerm;56829;52.274;4.770;2022-09-09T01:28:26;34.86;32.94;36.99;;
66450;Laerm;56829;52.274;4.770;2022-09-09T01:28:37;34.29;32.62;36.54;;
66450;Laerm;56829;52.274;4.770;2022-09-09T01:28:49;34.98;32.33;39.16;;
66450;Laerm;56829;52.274;4.770;2022-09-09T01:29:02;36.67;34.15;41.91;;
66450;Laerm;56829;52.274;4.770;2022-09-09T01:29:17;45.37;35.47;53.13;;
66450;Laerm;56829;52.274;4.770;2022-09-09T01:29:27;35.33;32.75;37.90;;
66450;Laerm;56829;52.274;4.770;2022-09-09T01:29:38;35.65;33.76;37.78;;
66450;Laerm;56829;52.274;4.770;2022-09-09T01:29:49;35.48;33.10;39.56;;
66450;Laerm;56829;52.274;4.770;2022-09-09T01:29:59;33.85;31.94;35.94;;
66450;Laerm;56829;52.274;4.770;2022-09-09T01:30:10;34.07;32.27;37.61;;
66450;Laerm;56829;52.274;4.770;2022-09-09T01:30:21;36.94;32.52;43.74;;
66450;Laerm;56829;52.274;4.770;2022-09-09T01:30:32;35.21;32.94;37.97;;
66450;Laerm;56829;52.274;4.770;2022-09-09T01:30:43;34.51;32.21;39.35;;
66450;Laerm;56829;52.274;4.770;2022-09-09T01:30:53;33.69;31.39;36.69;;
66450;Laerm;56829;52.274;4.770;2022-09-09T01:31:05;34.95;32.70;37.48;;
66450;Laerm;56829;52.274;4.770;2022-09-09T01:31:20;35.56;32.39;39.54;;
66450;Laerm;56829;52.274;4.770;2022-09-09T01:31:32;35.07;32.46;37.87;;
66450;Laerm;56829;52.274;4.770;2022-09-09T01:32:38;34.09;31.72;38.95;;
66450;Laerm;56829;52.274;4.770;2022-09-09T01:32:50;33.73;31.35;35.72;;
66450;Laerm;56829;52.274;4.770;2022-09-09T01:33:02;33.93;32.14;36.55;;
66450;Laerm;56829;52.274;4.770;2022-09-09T01:33:17;33.71;32.09;35.81;;
66450;Laerm;56829;52.274;4.770;2022-09-09T01:33:27;33.65;31.93;35.06;;
66450;Laerm;56829;52.274;4.770;2022-09-09T01:33:37;33.70;31.60;36.71;;
66450;Laerm;56829;52.274;4.770;2022-09-09T01:33:48;33.62;31.86;37.02;;
66450;Laerm;56829;52.274;4.770;2022-09-09T01:33:58;34.39;31.77;37.02;;
66450;Laerm;56829;52.274;4.770;2022-09-09T01:34:09;34.57;32.04;37.57;;
66450;Laerm;56829;52.274;4.770;2022-09-09T01:34:21;35.00;33.17;37.63;;
66450;Laerm;56829;52.274;4.770;2022-09-09T01:34:33;37.47;34.68;42.06;;
66450;Laerm;56829;52.274;4.770;2022-09-09T01:34:45;36.95;34.70;40.84;;
66450;Laerm;56829;52.274;4.770;2022-09-09T01:34:56;35.72;34.17;37.78;;
66450;Laerm;56829;52.274;4.770;2022-09-09T01:35:10;34.77;33.14;36.45;;
66450;Laerm;56829;52.274;4.770;2022-09-09T01:35:49;33.72;31.94;37.49;;
66450;Laerm;56829;52.274;4.770;2022-09-09T01:36:08;34.92;32.46;42.47;;
66450;Laerm;56829;52.274;4.770;2022-09-09T01:36:29;34.33;32.44;36.25;;
66450;Laerm;56829;52.274;4.770;2022-09-09T01:36:51;34.13;32.50;36.31;;
66450;Laerm;56829;52.274;4.770;2022-09-09T01:37:06;34.29;32.00;36.38;;
66450;Laerm;56829;52.274;4.770;2022-09-09T01:37:17;34.02;32.28;35.79;;
66450;Laerm;56829;52.274;4.770;2022-09-09T01:37:27;34.27;32.36;36.30;;
66450;Laerm;56829;52.274;4.770;2022-09-09T01:37:37;34.07;32.55;35.93;;
66450;Laerm;56829;52.274;4.770;2022-09-09T01:37:47;35.04;32.91;38.67;;
66450;Laerm;56829;52.274;4.770;2022-09-09T01:37:57;35.07;33.62;36.91;;
66450;Laerm;56829;52.274;4.770;2022-09-09T01:38:08;35.13;32.77;37.49;;
66450;Laerm;56829;52.274;4.770;2022-09-09T01:38:18;34.78;33.06;36.89;;
66450;Laerm;56829;52.274;4.770;2022-09-09T01:38:28;35.30;33.00;37.54;;
66450;Laerm;56829;52.274;4.770;2022-09-09T01:38:41;36.86;33.13;43.24;;
66450;Laerm;56829;52.274;4.770;2022-09-09T01:38:51;50.65;41.68;58.23;;
66450;Laerm;56829;52.274;4.770;2022-09-09T01:39:01;37.72;33.93;44.16;;
66450;Laerm;56829;52.274;4.770;2022-09-09T01:39:12;36.30;33.69;42.89;;
66450;Laerm;56829;52.274;4.770;2022-09-09T01:39:22;35.82;33.39;37.51;;
66450;Laerm;56829;52.274;4.770;2022-09-09T01:39:33;45.39;35.05;53.16;;
66450;Laerm;56829;52.274;4.770;2022-09-09T01:39:44;41.04;37.59;46.10;;
66450;Laerm;56829;52.274;4.770;2022-09-09T01:39:55;45.39;38.88;53.04;;
66450;Laerm;56829;52.274;4.770;2022-09-09T01:40:05;53.40;45.42;60.30;;
66450;Laerm;56829;52.274;4.770;2022-09-09T01:40:16;50.18;40.71;58.65;;
66450;Laerm;56829;52.274;4.770;2022-09-09T01:40:26;46.45;42.06;51.02;;
66450;Laerm;56829;52.274;4.770;2022-09-09T01:40:36;43.84;39.42;48.71;;
66450;Laerm;56829;52.274;4.770;2022-09-09T01:40:46;42.28;38.18;45.68;;
66450;Laerm;56829;52.274;4.770;2022-09-09T01:40:57;42.17;37.38;47.18;;
66450;Laerm;56829;52.274;4.770;2022-09-09T01:41:08;40.54;36.04;46.94;;
66450;Laerm;56829;52.274;4.770;2022-09-09T01:41:18;42.20;37.87;48.10;;
66450;Laerm;56829;52.274;4.770;2022-09-09T01:41:28;42.59;38.19;47.01;;
66450;Laerm;56829;52.274;4.770;2022-09-09T01:41:39;40.44;36.09;45.16;;
66450;Laerm;56829;52.274;4.770;2022-09-09T01:41:49;43.86;39.53;48.39;;
66450;Laerm;56829;52.274;4.770;2022-09-09T01:41:59;47.48;41.36;52.47;;
66450;Laerm;56829;52.274;4.770;2022-09-09T01:42:11;47.82;42.21;53.26;;
66450;Laerm;56829;52.274;4.770;2022-09-09T01:42:22;51.08;44.19;58.28;;
66450;Laerm;56829;52.274;4.770;2022-09-09T01:42:32;45.37;40.54;49.88;;
66450;Laerm;56829;52.274;4.770;2022-09-09T01:42:42;44.31;40.01;49.42;;
66450;Laerm;56829;52.274;4.770;2022-09-09T01:42:53;44.29;39.73;49.74;;
66450;Laerm;56829;52.274;4.770;2022-09-09T01:43:04;44.63;36.97;51.91;;
66450;Laerm;56829;52.274;4.770;2022-09-09T01:43:14;41.34;35.64;47.92;;
66450;Laerm;56829;52.274;4.770;2022-09-09T01:43:25;38.93;34.82;48.31;;
66450;Laerm;56829;52.274;4.770;2022-09-09T01:43:35;36.56;33.55;39.45;;
66450;Laerm;56829;52.274;4.770;2022-09-09T01:43:46;36.36;34.23;39.14;;
66450;Laerm;56829;52.274;4.770;2022-09-09T01:43:57;35.44;33.29;37.50;;
66450;Laerm;56829;52.274;4.770;2022-09-09T01:44:08;35.11;33.32;36.99;;
66450;Laerm;56829;52.274;4.770;2022-09-09T01:44:18;34.97;32.99;42.01;;
66450;Laerm;56829;52.274;4.770;2022-09-09T01:44:29;34.85;32.81;36.54;;
66450;Laerm;56829;52.274;4.770;2022-09-09T01:44:40;35.57;33.48;46.74;;
66450;Laerm;56829;52.274;4.770;2022-09-09T01:44:50;34.96;32.67;43.29;;
66450;Laerm;56829;52.274;4.770;2022-09-09T01:45:00;35.02;33.22;36.93;;
66450;Laerm;56829;52.274;4.770;2022-09-09T01:45:10;34.37;32.97;36.20;;
66450;Laerm;56829;52.274;4.770;2022-09-09T01:45:21;34.34;32.69;36.15;;
66450;Laerm;56829;52.274;4.770;2022-09-09T01:45:31;34.73;33.17;39.05;;
66450;Laerm;56829;52.274;4.770;2022-09-09T01:45:42;35.14;32.87;40.93;;
66450;Laerm;56829;52.274;4.770;2022-09-09T01:45:53;34.71;32.93;36.46;;
66450;Laerm;56829;52.274;4.770;2022-09-09T01:46:04;36.81;33.61;38.68;;